sensor_id;sensor_type;location;lat;lon;timestamp;pressure;altitude;pressure_sealevel;temperature
37452;BMP280;23314;51.114;6.900;2023-11-19T00:02:10;100703.22;;;12.22
37452;BMP280;23314;51.114;6.900;2023-11-19T00:04:37;100702.06;;;12.23
37452;BMP280;23314;51.114;6.900;2023-11-19T00:07:04;100698.22;;;12.24
37452;BMP280;23314;51.114;6.900;2023-11-19T00:09:31;100696.63;;;12.27
37452;BMP280;23314;51.114;6.900;2023-11-19T00:11:57;100690.84;;;12.28
37452;BMP280;23314;51.114;6.900;2023-11-19T00:14:23;100665.22;;;12.31
37452;BMP280;23314;51.114;6.900;2023-11-19T00:16:49;100662.91;;;12.33
37452;BMP280;23314;51.114;6.900;2023-11-19T00:19:16;100658.28;;;12.33
37452;BMP280;23314;51.114;6.900;2023-11-19T00:21:41;100680.00;;;12.35
37452;BMP280;23314;51.114;6.900;2023-11-19T00:24:07;100686.47;;;12.38
37452;BMP280;23314;51.114;6.900;2023-11-19T00:26:33;100684.88;;;12.41
37452;BMP280;23314;51.114;6.900;2023-11-19T00:28:59;100689.41;;;12.44
37452;BMP280;23314;51.114;6.900;2023-11-19T00:31:24;100687.41;;;12.48
37452;BMP280;23314;51.114;6.900;2023-11-19T00:33:51;100683.88;;;12.51
37452;BMP280;23314;51.114;6.900;2023-11-19T00:36:16;100679.63;;;12.53
37452;BMP280;23314;51.114;6.900;2023-11-19T00:38:42;100688.31;;;12.58
37452;BMP280;23314;51.114;6.900;2023-11-19T00:41:07;100680.66;;;12.60
37452;BMP280;23314;51.114;6.900;2023-11-19T00:43:32;100677.09;;;12.63
37452;BMP280;23314;51.114;6.900;2023-11-19T00:45:58;100667.84;;;12.67
37452;BMP280;23314;51.114;6.900;2023-11-19T00:48:23;100673.09;;;12.71
37452;BMP280;23314;51.114;6.900;2023-11-19T00:50:49;100682.25;;;12.74
37452;BMP280;23314;51.114;6.900;2023-11-19T00:53:14;100686.00;;;12.76
37452;BMP280;23314;51.114;6.900;2023-11-19T00:55:39;100682.06;;;12.81
37452;BMP280;23314;51.114;6.900;2023-11-19T00:58:05;100680.50;;;12.83
37452;BMP280;23314;51.114;6.900;2023-11-19T01:00:30;100672.00;;;12.85
37452;BMP280;23314;51.114;6.900;2023-11-19T01:02:57;100670.41;;;12.87
37452;BMP280;23314;51.114;6.900;2023-11-19T01:05:23;100679.56;;;12.90
37452;BMP280;23314;51.114;6.900;2023-11-19T01:07:48;100669.91;;;12.93
37452;BMP280;23314;51.114;6.900;2023-11-19T01:10:14;100662.56;;;12.97
37452;BMP280;23314;51.114;6.900;2023-11-19T01:12:41;100665.56;;;12.99
37452;BMP280;23314;51.114;6.900;2023-11-19T01:15:07;100664.63;;;13.05
37452;BMP280;23314;51.114;6.900;2023-11-19T01:17:32;100662.63;;;13.10
37452;BMP280;23314;51.114;6.900;2023-11-19T01:19:58;100675.84;;;13.17
37452;BMP280;23314;51.114;6.900;2023-11-19T01:22:23;100669.09;;;13.25
37452;BMP280;23314;51.114;6.900;2023-11-19T01:24:48;100669.59;;;13.36
37452;BMP280;23314;51.114;6.900;2023-11-19T01:27:14;100666.75;;;13.44
37452;BMP280;23314;51.114;6.900;2023-11-19T01:29:39;100664.94;;;13.53
37452;BMP280;23314;51.114;6.900;2023-11-19T01:32:05;100651.31;;;13.61
37452;BMP280;23314;51.114;6.900;2023-11-19T01:34:30;100656.84;;;13.70
37452;BMP280;23314;51.114;6.900;2023-11-19T01:36:56;100668.06;;;13.78
37452;BMP280;23314;51.114;6.900;2023-11-19T01:39:21;100662.53;;;13.85
37452;BMP280;23314;51.114;6.900;2023-11-19T01:41:46;100675.44;;;13.90
37452;BMP280;23314;51.114;6.900;2023-11-19T01:44:12;100668.34;;;13.96
37452;BMP280;23314;51.114;6.900;2023-11-19T01:46:42;100659.03;;;14.01
37452;BMP280;23314;51.114;6.900;2023-11-19T01:49:08;100663.81;;;14.06
37452;BMP280;23314;51.114;6.900;2023-11-19T01:51:34;100657.63;;;14.09
37452;BMP280;23314;51.114;6.900;2023-11-19T01:54:01;100649.13;;;14.11
37452;BMP280;23314;51.114;6.900;2023-11-19T01:56:27;100646.44;;;14.11
37452;BMP280;23314;51.114;6.900;2023-11-19T01:58:54;100652.56;;;14.11
37452;BMP280;23314;51.114;6.900;2023-11-19T02:01:21;100653.31;;;14.12
37452;BMP280;23314;51.114;6.900;2023-11-19T02:03:47;100658.69;;;14.12
37452;BMP280;23314;51.114;6.900;2023-11-19T02:06:12;100655.25;;;14.11
37452;BMP280;23314;51.114;6.900;2023-11-19T02:08:38;100647.97;;;14.12
37452;BMP280;23314;51.114;6.900;2023-11-19T02:11:05;100654.41;;;14.14
37452;BMP280;23314;51.114;6.900;2023-11-19T02:13:32;100652.03;;;14.16
37452;BMP280;23314;51.114;6.900;2023-11-19T02:15:57;100640.44;;;14.19
37452;BMP280;23314;51.114;6.900;2023-11-19T02:18:25;100632.72;;;14.22
37452;BMP280;23314;51.114;6.900;2023-11-19T02:20:54;100633.78;;;14.24
37452;BMP280;23314;51.114;6.900;2023-11-19T02:23:20;100624.16;;;14.27
37452;BMP280;23314;51.114;6.900;2023-11-19T02:28:31;100615.75;;;14.38
37452;BMP280;23314;51.114;6.900;2023-11-19T02:30:58;100606.09;;;14.40
37452;BMP280;23314;51.114;6.900;2023-11-19T02:33:23;100605.53;;;14.45
37452;BMP280;23314;51.114;6.900;2023-11-19T02:35:49;100603.91;;;14.48
37452;BMP280;23314;51.114;6.900;2023-11-19T02:38:16;100604.22;;;14.50
37452;BMP280;23314;51.114;6.900;2023-11-19T02:40:41;100585.03;;;14.51
37452;BMP280;23314;51.114;6.900;2023-11-19T02:43:06;100592.63;;;14.53
37452;BMP280;23314;51.114;6.900;2023-11-19T02:45:33;100587.72;;;14.51
37452;BMP280;23314;51.114;6.900;2023-11-19T02:47:59;100591.97;;;14.49
37452;BMP280;23314;51.114;6.900;2023-11-19T02:50:26;100597.78;;;14.47
37452;BMP280;23314;51.114;6.900;2023-11-19T02:52:54;100599.72;;;14.47
37452;BMP280;23314;51.114;6.900;2023-11-19T02:55:21;100602.84;;;14.45
37452;BMP280;23314;51.114;6.900;2023-11-19T02:57:49;100592.84;;;14.46
37452;BMP280;23314;51.114;6.900;2023-11-19T03:00:22;100591.97;;;14.49
37452;BMP280;23314;51.114;6.900;2023-11-19T03:02:57;100599.47;;;14.54
37452;BMP280;23314;51.114;6.900;2023-11-19T03:05:35;100602.81;;;14.58
37452;BMP280;23314;51.114;6.900;2023-11-19T03:08:00;100600.44;;;14.60
37452;BMP280;23314;51.114;6.900;2023-11-19T03:10:25;100589.25;;;14.62
37452;BMP280;23314;51.114;6.900;2023-11-19T03:12:51;100594.22;;;14.63
37452;BMP280;23314;51.114;6.900;2023-11-19T03:15:16;100592.91;;;14.68
37452;BMP280;23314;51.114;6.900;2023-11-19T03:17:42;100595.91;;;14.70
37452;BMP280;23314;51.114;6.900;2023-11-19T03:20:11;100589.38;;;14.71
37452;BMP280;23314;51.114;6.900;2023-11-19T03:22:42;100585.91;;;14.70
37452;BMP280;23314;51.114;6.900;2023-11-19T03:25:08;100567.88;;;14.71
37452;BMP280;23314;51.114;6.900;2023-11-19T03:27:37;100572.03;;;14.72
37452;BMP280;23314;51.114;6.900;2023-11-19T03:30:08;100575.47;;;14.73
37452;BMP280;23314;51.114;6.900;2023-11-19T03:32:35;100576.25;;;14.73
37452;BMP280;23314;51.114;6.900;2023-11-19T03:35:03;100576.56;;;14.75
37452;BMP280;23314;51.114;6.900;2023-11-19T03:37:30;100572.22;;;14.78
37452;BMP280;23314;51.114;6.900;2023-11-19T03:39:56;100575.25;;;14.80
37452;BMP280;23314;51.114;6.900;2023-11-19T03:42:25;100581.34;;;14.80
37452;BMP280;23314;51.114;6.900;2023-11-19T03:44:52;100579.44;;;14.81
37452;BMP280;23314;51.114;6.900;2023-11-19T03:47:17;100589.72;;;14.82
37452;BMP280;23314;51.114;6.900;2023-11-19T03:49:47;100584.81;;;14.81
37452;BMP280;23314;51.114;6.900;2023-11-19T03:52:13;100582.44;;;14.83
37452;BMP280;23314;51.114;6.900;2023-11-19T03:54:39;100582.44;;;14.83
37452;BMP280;23314;51.114;6.900;2023-11-19T03:57:04;100589.28;;;14.84
37452;BMP280;23314;51.114;6.900;2023-11-19T03:59:30;100589.72;;;14.82
37452;BMP280;23314;51.114;6.900;2023-11-19T04:01:55;100591.25;;;14.83
37452;BMP280;23314;51.114;6.900;2023-11-19T04:04:21;100592.72;;;14.84
37452;BMP280;23314;51.114;6.900;2023-11-19T04:06:48;100601.88;;;14.87
37452;BMP280;23314;51.114;6.900;2023-11-19T04:09:13;100605.72;;;14.86
37452;BMP280;23314;51.114;6.900;2023-11-19T04:11:38;100609.59;;;14.85
37452;BMP280;23314;51.114;6.900;2023-11-19T04:14:05;100601.66;;;14.81
37452;BMP280;23314;51.114;6.900;2023-11-19T04:16:30;100609.34;;;14.70
37452;BMP280;23314;51.114;6.900;2023-11-19T04:18:56;100594.78;;;14.58
37452;BMP280;23314;51.114;6.900;2023-11-19T04:21:21;100590.16;;;14.46
37452;BMP280;23314;51.114;6.900;2023-11-19T04:23:48;100586.00;;;14.32
37452;BMP280;23314;51.114;6.900;2023-11-19T04:26:13;100594.41;;;14.21
37452;BMP280;23314;51.114;6.900;2023-11-19T04:28:39;100590.13;;;14.11
37452;BMP280;23314;51.114;6.900;2023-11-19T04:31:04;100595.41;;;14.01
37452;BMP280;23314;51.114;6.900;2023-11-19T04:33:31;100592.50;;;13.96
37452;BMP280;23314;51.114;6.900;2023-11-19T04:35:56;100605.44;;;13.97
37452;BMP280;23314;51.114;6.900;2023-11-19T04:38:21;100609.25;;;14.00
37452;BMP280;23314;51.114;6.900;2023-11-19T04:40:46;100619.13;;;14.03
37452;BMP280;23314;51.114;6.900;2023-11-19T04:43:12;100625.09;;;14.07
37452;BMP280;23314;51.114;6.900;2023-11-19T04:45:38;100618.13;;;14.10
37452;BMP280;23314;51.114;6.900;2023-11-19T04:48:05;100629.94;;;14.12
37452;BMP280;23314;51.114;6.900;2023-11-19T04:50:30;100624.03;;;14.17
37452;BMP280;23314;51.114;6.900;2023-11-19T04:52:56;100612.00;;;14.22
37452;BMP280;23314;51.114;6.900;2023-11-19T04:55:21;100613.41;;;14.27
37452;BMP280;23314;51.114;6.900;2023-11-19T04:57:47;100608.66;;;14.31
37452;BMP280;23314;51.114;6.900;2023-11-19T05:00:13;100605.56;;;14.32
37452;BMP280;23314;51.114;6.900;2023-11-19T05:02:38;100601.22;;;14.35
37452;BMP280;23314;51.114;6.900;2023-11-19T05:05:04;100604.38;;;14.33
37452;BMP280;23314;51.114;6.900;2023-11-19T05:07:30;100606.75;;;14.31
37452;BMP280;23314;51.114;6.900;2023-11-19T05:09:55;100604.38;;;14.33
37452;BMP280;23314;51.114;6.900;2023-11-19T05:12:20;100606.53;;;14.39
37452;BMP280;23314;51.114;6.900;2023-11-19T05:14:46;100601.47;;;14.41
37452;BMP280;23314;51.114;6.900;2023-11-19T05:17:15;100609.81;;;14.43
37452;BMP280;23314;51.114;6.900;2023-11-19T05:19:40;100613.59;;;14.45
37452;BMP280;23314;51.114;6.900;2023-11-19T05:22:06;100624.63;;;14.47
37452;BMP280;23314;51.114;6.900;2023-11-19T05:24:31;100628.06;;;14.48
37452;BMP280;23314;51.114;6.900;2023-11-19T05:26:57;100628.81;;;14.48
37452;BMP280;23314;51.114;6.900;2023-11-19T05:29:23;100624.31;;;14.45
37452;BMP280;23314;51.114;6.900;2023-11-19T05:31:49;100627.66;;;14.36
37452;BMP280;23314;51.114;6.900;2023-11-19T05:34:14;100621.22;;;14.21
37452;BMP280;23314;51.114;6.900;2023-11-19T05:36:40;100637.56;;;14.14
37452;BMP280;23314;51.114;6.900;2023-11-19T05:39:05;100634.66;;;14.08
37452;BMP280;23314;51.114;6.900;2023-11-19T05:41:31;100641.75;;;14.02
37452;BMP280;23314;51.114;6.900;2023-11-19T05:43:56;100631.22;;;13.95
37452;BMP280;23314;51.114;6.900;2023-11-19T05:46:21;100635.63;;;13.89
37452;BMP280;23314;51.114;6.900;2023-11-19T05:48:47;100634.88;;;13.88
37452;BMP280;23314;51.114;6.900;2023-11-19T05:51:13;100629.84;;;13.90
37452;BMP280;23314;51.114;6.900;2023-11-19T05:53:40;100636.59;;;13.95
37452;BMP280;23314;51.114;6.900;2023-11-19T05:56:06;100632.28;;;13.97
37452;BMP280;23314;51.114;6.900;2023-11-19T05:58:34;100649.88;;;13.98
37452;BMP280;23314;51.114;6.900;2023-11-19T06:01:01;100647.63;;;13.97
37452;BMP280;23314;51.114;6.900;2023-11-19T06:03:27;100636.06;;;14.00
37452;BMP280;23314;51.114;6.900;2023-11-19T06:05:53;100640.44;;;13.94
37452;BMP280;23314;51.114;6.900;2023-11-19T06:08:19;100634.53;;;13.86
37452;BMP280;23314;51.114;6.900;2023-11-19T06:10:46;100640.22;;;13.75
37452;BMP280;23314;51.114;6.900;2023-11-19T06:13:12;100653.16;;;13.64
37452;BMP280;23314;51.114;6.900;2023-11-19T06:15:41;100651.88;;;13.56
37452;BMP280;23314;51.114;6.900;2023-11-19T06:18:06;100655.91;;;13.47
37452;BMP280;23314;51.114;6.900;2023-11-19T06:20:32;100650.41;;;13.38
37452;BMP280;23314;51.114;6.900;2023-11-19T06:22:58;100663.56;;;13.32
37452;BMP280;23314;51.114;6.900;2023-11-19T06:25:24;100645.66;;;13.29
37452;BMP280;23314;51.114;6.900;2023-11-19T06:27:50;100667.94;;;13.26
37452;BMP280;23314;51.114;6.900;2023-11-19T06:30:15;100663.44;;;13.23
37452;BMP280;23314;51.114;6.900;2023-11-19T06:32:41;100662.47;;;13.17
37452;BMP280;23314;51.114;6.900;2023-11-19T06:35:07;100664.84;;;13.11
37452;BMP280;23314;51.114;6.900;2023-11-19T06:37:32;100649.00;;;13.04
37452;BMP280;23314;51.114;6.900;2023-11-19T06:39:58;100654.06;;;12.98
37452;BMP280;23314;51.114;6.900;2023-11-19T06:42:24;100651.16;;;12.93
37452;BMP280;23314;51.114;6.900;2023-11-19T06:44:49;100655.13;;;12.88
37452;BMP280;23314;51.114;6.900;2023-11-19T06:47:14;100655.63;;;12.83
37452;BMP280;23314;51.114;6.900;2023-11-19T06:49:40;100653.44;;;12.78
37452;BMP280;23314;51.114;6.900;2023-11-19T06:52:05;100662.31;;;12.75
37452;BMP280;23314;51.114;6.900;2023-11-19T06:54:30;100667.34;;;12.73
37452;BMP280;23314;51.114;6.900;2023-11-19T06:56:56;100658.22;;;12.70
37452;BMP280;23314;51.114;6.900;2023-11-19T06:59:23;100660.56;;;12.68
37452;BMP280;23314;51.114;6.900;2023-11-19T07:01:48;100659.47;;;12.65
37452;BMP280;23314;51.114;6.900;2023-11-19T07:04:13;100654.88;;;12.66
37452;BMP280;23314;51.114;6.900;2023-11-19T07:06:39;100648.00;;;12.65
37452;BMP280;23314;51.114;6.900;2023-11-19T07:09:09;100655.28;;;12.64
37452;BMP280;23314;51.114;6.900;2023-11-19T07:11:37;100654.53;;;12.64
37452;BMP280;23314;51.114;6.900;2023-11-19T07:14:04;100659.47;;;12.65
37452;BMP280;23314;51.114;6.900;2023-11-19T07:16:29;100659.81;;;12.67
37452;BMP280;23314;51.114;6.900;2023-11-19T07:18:54;100655.22;;;12.68
37452;BMP280;23314;51.114;6.900;2023-11-19T07:21:20;100652.53;;;12.68
37452;BMP280;23314;51.114;6.900;2023-11-19T07:23:46;100652.53;;;12.68
37452;BMP280;23314;51.114;6.900;2023-11-19T07:26:12;100670.53;;;12.67
37452;BMP280;23314;51.114;6.900;2023-11-19T07:28:37;100666.34;;;12.66
37452;BMP280;23314;51.114;6.900;2023-11-19T07:31:03;100665.19;;;12.67
37452;BMP280;23314;51.114;6.900;2023-11-19T07:33:28;100669.38;;;12.68
37452;BMP280;23314;51.114;6.900;2023-11-19T07:35:55;100670.44;;;12.71
37452;BMP280;23314;51.114;6.900;2023-11-19T07:38:21;100682.63;;;12.72
37452;BMP280;23314;51.114;6.900;2023-11-19T07:40:46;100687.31;;;12.68
37452;BMP280;23314;51.114;6.900;2023-11-19T07:43:12;100681.63;;;12.66
37452;BMP280;23314;51.114;6.900;2023-11-19T07:45:38;100695.44;;;12.64
37452;BMP280;23314;51.114;6.900;2023-11-19T07:48:03;100680.53;;;12.63
37452;BMP280;23314;51.114;6.900;2023-11-19T07:50:29;100681.28;;;12.64
37452;BMP280;23314;51.114;6.900;2023-11-19T07:52:56;100680.88;;;12.65
37452;BMP280;23314;51.114;6.900;2023-11-19T07:55:22;100695.34;;;12.68
37452;BMP280;23314;51.114;6.900;2023-11-19T07:57:47;100691.09;;;12.70
37452;BMP280;23314;51.114;6.900;2023-11-19T08:00:14;100702.16;;;12.73
37452;BMP280;23314;51.114;6.900;2023-11-19T08:02:39;100709.75;;;12.74
37452;BMP280;23314;51.114;6.900;2023-11-19T08:05:05;100717.34;;;12.76
37452;BMP280;23314;51.114;6.900;2023-11-19T08:07:31;100715.69;;;12.82
37452;BMP280;23314;51.114;6.900;2023-11-19T08:09:56;100721.63;;;12.90
37452;BMP280;23314;51.114;6.900;2023-11-19T08:12:21;100730.31;;;12.94
37452;BMP280;23314;51.114;6.900;2023-11-19T08:14:48;100731.00;;;12.98
37452;BMP280;23314;51.114;6.900;2023-11-19T08:17:14;100739.28;;;13.03
37452;BMP280;23314;51.114;6.900;2023-11-19T08:19:39;100745.66;;;13.10
37452;BMP280;23314;51.114;6.900;2023-11-19T08:22:05;100747.72;;;13.18
37452;BMP280;23314;51.114;6.900;2023-11-19T08:24:30;100753.06;;;13.35
37452;BMP280;23314;51.114;6.900;2023-11-19T08:26:55;100772.34;;;13.59
37452;BMP280;23314;51.114;6.900;2023-11-19T08:29:21;100770.47;;;13.73
37452;BMP280;23314;51.114;6.900;2023-11-19T08:31:46;100773.75;;;13.80
37452;BMP280;23314;51.114;6.900;2023-11-19T08:34:12;100756.38;;;13.85
37452;BMP280;23314;51.114;6.900;2023-11-19T08:36:37;100767.66;;;13.93
37452;BMP280;23314;51.114;6.900;2023-11-19T08:39:03;100759.00;;;14.01
37452;BMP280;23314;51.114;6.900;2023-11-19T08:41:28;100766.31;;;14.14
37452;BMP280;23314;51.114;6.900;2023-11-19T08:43:53;100757.97;;;14.25
37452;BMP280;23314;51.114;6.900;2023-11-19T08:46:19;100758.59;;;14.29
37452;BMP280;23314;51.114;6.900;2023-11-19T08:48:44;100759.03;;;14.27
37452;BMP280;23314;51.114;6.900;2023-11-19T08:51:11;100753.00;;;14.23
37452;BMP280;23314;51.114;6.900;2023-11-19T08:53:37;100756.97;;;14.18
37452;BMP280;23314;51.114;6.900;2023-11-19T08:56:02;100766.53;;;14.19
37452;BMP280;23314;51.114;6.900;2023-11-19T08:58:28;100755.69;;;14.23
37452;BMP280;23314;51.114;6.900;2023-11-19T09:00:53;100764.63;;;14.33
37452;BMP280;23314;51.114;6.900;2023-11-19T09:03:19;100771.94;;;14.45
37452;BMP280;23314;51.114;6.900;2023-11-19T09:05:45;100768.50;;;14.58
37452;BMP280;23314;51.114;6.900;2023-11-19T09:08:10;100777.81;;;14.66
37452;BMP280;23314;51.114;6.900;2023-11-19T09:10:37;100775.03;;;14.69
37452;BMP280;23314;51.114;6.900;2023-11-19T09:13:02;100761.06;;;14.62
37452;BMP280;23314;51.114;6.900;2023-11-19T09:15:29;100761.28;;;14.54
37452;BMP280;23314;51.114;6.900;2023-11-19T09:17:54;100758.81;;;14.47
37452;BMP280;23314;51.114;6.900;2023-11-19T09:20:19;100775.03;;;14.44
37452;BMP280;23314;51.114;6.900;2023-11-19T09:22:45;100763.69;;;14.40
37452;BMP280;23314;51.114;6.900;2023-11-19T09:25:11;100771.41;;;14.38
37452;BMP280;23314;51.114;6.900;2023-11-19T09:27:36;100765.69;;;14.35
37452;BMP280;23314;51.114;6.900;2023-11-19T09:30:02;100768.06;;;14.33
37452;BMP280;23314;51.114;6.900;2023-11-19T09:32:29;100749.50;;;14.39
37452;BMP280;23314;51.114;6.900;2023-11-19T09:34:54;100765.81;;;14.45
37452;BMP280;23314;51.114;6.900;2023-11-19T09:37:20;100758.53;;;14.45
37452;BMP280;23314;51.114;6.900;2023-11-19T09:39:45;100755.84;;;14.45
37452;BMP280;23314;51.114;6.900;2023-11-19T09:42:12;100749.59;;;14.48
37452;BMP280;23314;51.114;6.900;2023-11-19T09:44:38;100764.09;;;14.64
37452;BMP280;23314;51.114;6.900;2023-11-19T09:47:05;100767.06;;;14.79
37452;BMP280;23314;51.114;6.900;2023-11-19T09:49:30;100778.56;;;14.92
37452;BMP280;23314;51.114;6.900;2023-11-19T09:51:56;100767.03;;;15.05
37452;BMP280;23314;51.114;6.900;2023-11-19T09:54:21;100768.34;;;15.13
37452;BMP280;23314;51.114;6.900;2023-11-19T09:56:47;100764.75;;;15.16
37452;BMP280;23314;51.114;6.900;2023-11-19T09:59:14;100765.06;;;15.18
37452;BMP280;23314;51.114;6.900;2023-11-19T10:01:39;100761.41;;;15.25
37452;BMP280;23314;51.114;6.900;2023-11-19T10:04:06;100760.50;;;15.28
37452;BMP280;23314;51.114;6.900;2023-11-19T10:06:32;100762.78;;;15.29
37452;BMP280;23314;51.114;6.900;2023-11-19T10:08:57;100762.66;;;15.33
37452;BMP280;23314;51.114;6.900;2023-11-19T10:11:24;100754.69;;;15.42
37452;BMP280;23314;51.114;6.900;2023-11-19T10:13:51;100753.59;;;15.62
37452;BMP280;23314;51.114;6.900;2023-11-19T10:16:17;100752.19;;;15.70
37452;BMP280;23314;51.114;6.900;2023-11-19T10:18:45;100740.84;;;15.75
37452;BMP280;23314;51.114;6.900;2023-11-19T10:21:12;100753.47;;;15.88
37452;BMP280;23314;51.114;6.900;2023-11-19T10:23:49;100751.44;;;16.01
37452;BMP280;23314;51.114;6.900;2023-11-19T10:26:15;100743.88;;;16.09
37452;BMP280;23314;51.114;6.900;2023-11-19T10:28:40;100750.44;;;16.08
37452;BMP280;23314;51.114;6.900;2023-11-19T10:31:09;100751.44;;;16.01
37452;BMP280;23314;51.114;6.900;2023-11-19T10:33:34;100744.53;;;16.00
37452;BMP280;23314;51.114;6.900;2023-11-19T10:36:00;100744.69;;;15.96
37452;BMP280;23314;51.114;6.900;2023-11-19T10:38:25;100731.69;;;15.95
37452;BMP280;23314;51.114;6.900;2023-11-19T10:40:52;100743.81;;;15.99
37452;BMP280;23314;51.114;6.900;2023-11-19T10:43:18;100750.69;;;16.00
37452;BMP280;23314;51.114;6.900;2023-11-19T10:45:43;100737.56;;;16.02
37452;BMP280;23314;51.114;6.900;2023-11-19T10:48:09;100734.09;;;16.02
37452;BMP280;23314;51.114;6.900;2023-11-19T10:50:41;100743.34;;;16.01
37452;BMP280;23314;51.114;6.900;2023-11-19T10:53:08;100735.59;;;16.03
37452;BMP280;23314;51.114;6.900;2023-11-19T10:55:35;100734.09;;;16.02
37452;BMP280;23314;51.114;6.900;2023-11-19T10:58:04;100737.88;;;16.05
37452;BMP280;23314;51.114;6.900;2023-11-19T11:00:43;100735.34;;;16.10
37452;BMP280;23314;51.114;6.900;2023-11-19T11:03:20;100731.00;;;16.13
37452;BMP280;23314;51.114;6.900;2023-11-19T11:05:50;100723.38;;;16.11
37452;BMP280;23314;51.114;6.900;2023-11-19T11:08:17;100725.78;;;16.09
37452;BMP280;23314;51.114;6.900;2023-11-19T11:10:44;100730.41;;;16.09
37452;BMP280;23314;51.114;6.900;2023-11-19T11:13:11;100723.84;;;16.10
37452;BMP280;23314;51.114;6.900;2023-11-19T11:15:38;100729.25;;;16.10
37452;BMP280;23314;51.114;6.900;2023-11-19T11:18:06;100715.16;;;16.06
37452;BMP280;23314;51.114;6.900;2023-11-19T11:20:33;100735.19;;;16.05
37452;BMP280;23314;51.114;6.900;2023-11-19T11:26:05;100737.72;;;16.08
37452;BMP280;23314;51.114;6.900;2023-11-19T11:28:43;100728.72;;;16.02
37452;BMP280;23314;51.114;6.900;2023-11-19T11:39:57;100720.66;;;15.70
37452;BMP280;23314;51.114;6.900;2023-11-19T11:45:12;100698.41;;;15.70
37452;BMP280;23314;51.114;6.900;2023-11-19T11:55:26;100693.84;;;16.30
37452;BMP280;23314;51.114;6.900;2023-11-19T11:57:51;100699.72;;;16.47
37452;BMP280;23314;51.114;6.900;2023-11-19T12:02:55;100697.94;;;16.71
37452;BMP280;23314;51.114;6.900;2023-11-19T12:05:21;100691.03;;;16.61
37452;BMP280;23314;51.114;6.900;2023-11-19T12:07:59;100711.84;;;16.51
37452;BMP280;23314;51.114;6.900;2023-11-19T12:10:29;100694.50;;;16.43
37452;BMP280;23314;51.114;6.900;2023-11-19T12:13:00;100699.69;;;16.37
37452;BMP280;23314;51.114;6.900;2023-11-19T12:15:26;100701.19;;;16.38
37452;BMP280;23314;51.114;6.900;2023-11-19T12:17:53;100699.56;;;16.41
37452;BMP280;23314;51.114;6.900;2023-11-19T12:20:21;100689.09;;;16.52
37452;BMP280;23314;51.114;6.900;2023-11-19T12:22:47;100690.94;;;16.65
37452;BMP280;23314;51.114;6.900;2023-11-19T12:25:15;100681.78;;;16.71
37452;BMP280;23314;51.114;6.900;2023-11-19T12:27:48;100679.56;;;16.79
37452;BMP280;23314;51.114;6.900;2023-11-19T12:30:22;100679.25;;;16.77
37452;BMP280;23314;51.114;6.900;2023-11-19T12:32:49;100678.81;;;16.79
37452;BMP280;23314;51.114;6.900;2023-11-19T12:35:14;100683.44;;;16.78
37452;BMP280;23314;51.114;6.900;2023-11-19T12:37:44;100673.41;;;16.69
37452;BMP280;23314;51.114;6.900;2023-11-19T12:40:21;100669.66;;;16.58
37452;BMP280;23314;51.114;6.900;2023-11-19T12:42:47;100658.44;;;16.50
37452;BMP280;23314;51.114;6.900;2023-11-19T12:45:13;100664.88;;;16.43
37452;BMP280;23314;51.114;6.900;2023-11-19T12:47:39;100669.19;;;16.31
37452;BMP280;23314;51.114;6.900;2023-11-19T12:50:08;100679.44;;;16.24
37452;BMP280;23314;51.114;6.900;2023-11-19T12:52:35;100668.25;;;16.16
37452;BMP280;23314;51.114;6.900;2023-11-19T12:55:01;100668.66;;;16.05
37452;BMP280;23314;51.114;6.900;2023-11-19T12:57:37;100674.59;;;16.00
37452;BMP280;23314;51.114;6.900;2023-11-19T13:00:03;100661.13;;;16.00
37452;BMP280;23314;51.114;6.900;2023-11-19T13:02:48;100669.09;;;16.03
37452;BMP280;23314;51.114;6.900;2023-11-19T13:05:24;100670.63;;;16.14
37452;BMP280;23314;51.114;6.900;2023-11-19T13:08:06;100676.34;;;16.25
37452;BMP280;23314;51.114;6.900;2023-11-19T13:10:33;100673.97;;;16.36
37452;BMP280;23314;51.114;6.900;2023-11-19T13:13:07;100684.59;;;16.40
37452;BMP280;23314;51.114;6.900;2023-11-19T13:15:34;100678.94;;;16.38
37452;BMP280;23314;51.114;6.900;2023-11-19T13:18:00;100683.25;;;16.45
37452;BMP280;23314;51.114;6.900;2023-11-19T13:20:25;100678.63;;;16.54
37452;BMP280;23314;51.114;6.900;2023-11-19T13:22:58;100673.09;;;16.58
37452;BMP280;23314;51.114;6.900;2023-11-19T13:25:24;100674.78;;;16.65
37452;BMP280;23314;51.114;6.900;2023-11-19T13:27:49;100683.72;;;16.71
37452;BMP280;23314;51.114;6.900;2023-11-19T13:30:15;100685.22;;;16.72
37452;BMP280;23314;51.114;6.900;2023-11-19T13:32:41;100669.06;;;16.63
37452;BMP280;23314;51.114;6.900;2023-11-19T13:35:07;100677.47;;;16.65
37452;BMP280;23314;51.114;6.900;2023-11-19T13:37:34;100672.97;;;16.62
37452;BMP280;23314;51.114;6.900;2023-11-19T13:39:59;100672.19;;;16.61
37452;BMP280;23314;51.114;6.900;2023-11-19T13:42:25;100666.22;;;16.57
37452;BMP280;23314;51.114;6.900;2023-11-19T13:44:50;100679.69;;;16.48
37452;BMP280;23314;51.114;6.900;2023-11-19T13:47:15;100655.13;;;16.36
37452;BMP280;23314;51.114;6.900;2023-11-19T13:49:41;100667.38;;;16.28
37452;BMP280;23314;51.114;6.900;2023-11-19T13:52:06;100662.88;;;16.25
37452;BMP280;23314;51.114;6.900;2023-11-19T13:54:31;100663.75;;;16.22
37452;BMP280;23314;51.114;6.900;2023-11-19T13:56:56;100649.41;;;16.16
37452;BMP280;23314;51.114;6.900;2023-11-19T13:59:26;100657.00;;;16.08
37452;BMP280;23314;51.114;6.900;2023-11-19T14:01:51;100661.91;;;16.00
37452;BMP280;23314;51.114;6.900;2023-11-19T14:04:16;100651.31;;;15.97
37452;BMP280;23314;51.114;6.900;2023-11-19T14:06:45;100651.88;;;15.92
37452;BMP280;23314;51.114;6.900;2023-11-19T14:09:10;100649.59;;;15.90
37452;BMP280;23314;51.114;6.900;2023-11-19T14:11:35;100639.75;;;15.87
37452;BMP280;23314;51.114;6.900;2023-11-19T14:14:01;100632.28;;;15.82
37452;BMP280;23314;51.114;6.900;2023-11-19T14:16:27;100638.94;;;15.77
37452;BMP280;23314;51.114;6.900;2023-11-19T14:18:52;100645.66;;;15.73
37452;BMP280;23314;51.114;6.900;2023-11-19T14:21:18;100634.72;;;15.67